sensor_id;sensor_type;location;lat;lon;timestamp;pressure;altitude;pressure_sealevel;temperature;humidity
28181;BME280;15464;50.988;10.318;2023-01-26T00:02:10;99663.59;;;-2.40;100.00
28181;BME280;15464;50.988;10.318;2023-01-26T00:04:36;99661.63;;;-2.31;100.00
28181;BME280;15464;50.988;10.318;2023-01-26T00:07:03;99652.94;;;-2.30;100.00
28181;BME280;15464;50.988;10.318;2023-01-26T00:09:30;99651.97;;;-2.24;100.00
28181;BME280;15464;50.988;10.318;2023-01-26T00:11:57;99651.06;;;-2.22;100.00
28181;BME280;15464;50.988;10.318;2023-01-26T00:14:23;99643.41;;;-2.29;100.00
28181;BME280;15464;50.988;10.318;2023-01-26T00:16:50;99643.69;;;-2.41;100.00
28181;BME280;15464;50.988;10.318;2023-01-26T00:19:19;99648.97;;;-2.45;100.00
28181;BME280;15464;50.988;10.318;2023-01-26T00:21:45;99647.31;;;-2.49;100.00
28181;BME280;15464;50.988;10.318;2023-01-26T00:24:12;99643.81;;;-2.48;100.00
28181;BME280;15464;50.988;10.318;2023-01-26T00:26:39;99642.94;;;-2.47;100.00
28181;BME280;15464;50.988;10.318;2023-01-26T00:29:06;99644.81;;;-2.53;100.00
28181;BME280;15464;50.988;10.318;2023-01-26T00:31:32;99647.38;;;-2.52;100.00
28181;BME280;15464;50.988;10.318;2023-01-26T00:33:59;99647.31;;;-2.49;100.00
28181;BME280;15464;50.988;10.318;2023-01-26T00:36:26;99645.53;;;-2.47;100.00
28181;BME280;15464;50.988;10.318;2023-01-26T00:38:53;99644.19;;;-2.63;100.00
28181;BME280;15464;50.988;10.318;2023-01-26T00:41:20;99638.97;;;-2.63;100.00
28181;BME280;15464;50.988;10.318;2023-01-26T00:44:06;99631.00;;;-2.55;100.00
28181;BME280;15464;50.988;10.318;2023-01-26T00:46:33;99623.19;;;-2.54;100.00
28181;BME280;15464;50.988;10.318;2023-01-26T00:48:59;99629.97;;;-2.47;100.00
28181;BME280;15464;50.988;10.318;2023-01-26T00:51:26;99624.69;;;-2.44;100.00
28181;BME280;15464;50.988;10.318;2023-01-26T00:53:53;99629.69;;;-2.34;100.00
28181;BME280;15464;50.988;10.318;2023-01-26T00:56:20;99629.63;;;-2.31;100.00
28181;BME280;15464;50.988;10.318;2023-01-26T00:58:47;99618.28;;;-2.27;100.00
28181;BME280;15464;50.988;10.318;2023-01-26T01:01:14;99619.16;;;-2.28;100.00
28181;BME280;15464;50.988;10.318;2023-01-26T01:03:41;99619.00;;;-2.22;100.00
28181;BME280;15464;50.988;10.318;2023-01-26T01:06:08;99625.97;;;-2.24;100.00
28181;BME280;15464;50.988;10.318;2023-01-26T01:08:35;99620.78;;;-2.24;100.00
28181;BME280;15464;50.988;10.318;2023-01-26T01:11:07;99615.59;;;-2.24;100.00
28181;BME280;15464;50.988;10.318;2023-01-26T01:13:34;99625.19;;;-2.26;100.00
28181;BME280;15464;50.988;10.318;2023-01-26T01:16:06;99626.13;;;-2.30;100.00
28181;BME280;15464;50.988;10.318;2023-01-26T01:18:34;99625.41;;;-2.37;100.00
28181;BME280;15464;50.988;10.318;2023-01-26T01:21:08;99621.91;;;-2.34;100.00
28181;BME280;15464;50.988;10.318;2023-01-26T01:23:35;99627.78;;;-2.26;100.00
28181;BME280;15464;50.988;10.318;2023-01-26T01:26:03;99619.88;;;-2.22;100.00
28181;BME280;15464;50.988;10.318;2023-01-26T01:28:31;99618.28;;;-2.27;100.00
28181;BME280;15464;50.988;10.318;2023-01-26T01:30:58;99615.69;;;-2.29;100.00
28181;BME280;15464;50.988;10.318;2023-01-26T01:33:25;99617.75;;;-2.43;100.00
28181;BME280;15464;50.988;10.318;2023-01-26T01:36:00;99622.13;;;-2.45;100.00
28181;BME280;15464;50.988;10.318;2023-01-26T01:38:27;99624.50;;;-2.34;100.00
28181;BME280;15464;50.988;10.318;2023-01-26T01:40:54;99619.16;;;-2.28;100.00
28181;BME280;15464;50.988;10.318;2023-01-26T01:43:25;99622.53;;;-2.25;100.00
28181;BME280;15464;50.988;10.318;2023-01-26T01:45:53;99620.63;;;-2.18;100.00
28181;BME280;15464;50.988;10.318;2023-01-26T01:48:24;99617.31;;;-2.23;100.00
28181;BME280;15464;50.988;10.318;2023-01-26T01:50:57;99611.97;;;-2.17;100.00
28181;BME280;15464;50.988;10.318;2023-01-26T01:53:33;99604.91;;;-2.12;100.00
28181;BME280;15464;50.988;10.318;2023-01-26T01:56:05;99602.31;;;-2.12;100.00
28181;BME280;15464;50.988;10.318;2023-01-26T01:58:36;99602.50;;;-2.20;100.00
28181;BME280;15464;50.988;10.318;2023-01-26T02:01:05;99594.81;;;-2.24;100.00
28181;BME280;15464;50.988;10.318;2023-01-26T02:03:32;99588.63;;;-2.19;100.00
28181;BME280;15464;50.988;10.318;2023-01-26T02:06:15;99584.56;;;-2.30;100.00
28181;BME280;15464;50.988;10.318;2023-01-26T02:08:46;99583.66;;;-2.28;100.00
28181;BME280;15464;50.988;10.318;2023-01-26T02:11:16;99577.44;;;-2.22;100.00
28181;BME280;15464;50.988;10.318;2023-01-26T02:13:45;99568.09;;;-2.29;100.00
28181;BME280;15464;50.988;10.318;2023-01-26T02:16:12;99584.56;;;-2.30;100.00
28181;BME280;15464;50.988;10.318;2023-01-26T02:18:39;99575.03;;;-2.30;100.00
28181;BME280;15464;50.988;10.318;2023-01-26T02:21:08;99575.22;;;-2.37;100.00
28181;BME280;15464;50.988;10.318;2023-01-26T02:26:32;99565.56;;;-2.32;100.00
28181;BME280;15464;50.988;10.318;2023-01-26T02:29:01;99561.28;;;-2.35;100.00
28181;BME280;15464;50.988;10.318;2023-01-26T02:31:28;99556.97;;;-2.34;100.00
28181;BME280;15464;50.988;10.318;2023-01-26T02:33:56;99544.69;;;-2.29;100.00
28181;BME280;15464;50.988;10.318;2023-01-26T02:36:28;99542.13;;;-2.31;100.00
28181;BME280;15464;50.988;10.318;2023-01-26T02:41:21;99540.44;;;-2.32;100.00
28181;BME280;15464;50.988;10.318;2023-01-26T02:44:08;99532.53;;;-2.27;100.00
28181;BME280;15464;50.988;10.318;2023-01-26T02:46:35;99533.53;;;-2.31;100.00
28181;BME280;15464;50.988;10.318;2023-01-26T02:49:02;99530.13;;;-2.35;100.00
28181;BME280;15464;50.988;10.318;2023-01-26T02:51:48;99533.59;;;-2.36;100.00
28181;BME280;15464;50.988;10.318;2023-01-26T02:54:14;99540.53;;;-2.36;100.00
28181;BME280;15464;50.988;10.318;2023-01-26T02:57:01;99537.88;;;-2.33;100.00
28181;BME280;15464;50.988;10.318;2023-01-26T02:59:27;99533.41;;;-2.27;100.00
28181;BME280;15464;50.988;10.318;2023-01-26T03:01:56;99529.13;;;-2.29;100.00
28181;BME280;15464;50.988;10.318;2023-01-26T03:04:23;99528.22;;;-2.28;100.00
28181;BME280;15464;50.988;10.318;2023-01-26T03:06:50;99527.41;;;-2.30;100.00
28181;BME280;15464;50.988;10.318;2023-01-26T03:09:17;99530.81;;;-2.27;100.00
28181;BME280;15464;50.988;10.318;2023-01-26T03:11:43;99529.94;;;-2.27;100.00
28181;BME280;15464;50.988;10.318;2023-01-26T03:14:12;99516.97;;;-2.27;100.00
28181;BME280;15464;50.988;10.318;2023-01-26T03:16:39;99513.38;;;-2.23;100.00
28181;BME280;15464;50.988;10.318;2023-01-26T03:19:08;99511.59;;;-2.21;100.00
28181;BME280;15464;50.988;10.318;2023-01-26T03:21:55;99509.13;;;-2.26;100.00
28181;BME280;15464;50.988;10.318;2023-01-26T03:24:40;99504.13;;;-2.33;100.00
28181;BME280;15464;50.988;10.318;2023-01-26T03:27:27;99504.00;;;-2.29;100.00
28181;BME280;15464;50.988;10.318;2023-01-26T03:29:55;99508.28;;;-2.26;100.00
28181;BME280;15464;50.988;10.318;2023-01-26T03:32:23;99503.00;;;-2.23;100.00
28181;BME280;15464;50.988;10.318;2023-01-26T03:34:50;99502.13;;;-2.24;100.00
28181;BME280;15464;50.988;10.318;2023-01-26T03:37:17;99499.66;;;-2.28;100.00
28181;BME280;15464;50.988;10.318;2023-01-26T03:39:49;99502.19;;;-2.25;100.00
28181;BME280;15464;50.988;10.318;2023-01-26T03:42:35;99499.75;;;-2.31;100.00
28181;BME280;15464;50.988;10.318;2023-01-26T03:45:21;99497.88;;;-2.26;100.00
28181;BME280;15464;50.988;10.318;2023-01-26T03:48:08;99496.91;;;-2.22;100.00
28181;BME280;15464;50.988;10.318;2023-01-26T03:50:54;99494.47;;;-2.28;100.00
28181;BME280;15464;50.988;10.318;2023-01-26T03:53:39;99497.19;;;-2.33;100.00
28181;BME280;15464;50.988;10.318;2023-01-26T03:56:24;99505.75;;;-2.29;100.00
28181;BME280;15464;50.988;10.318;2023-01-26T03:58:53;99502.25;;;-2.28;100.00
28181;BME280;15464;50.988;10.318;2023-01-26T04:01:22;99502.44;;;-2.36;100.00
28181;BME280;15464;50.988;10.318;2023-01-26T04:03:55;99501.72;;;-2.42;100.00
28181;BME280;15464;50.988;10.318;2023-01-26T04:06:43;99502.75;;;-2.50;100.00
28181;BME280;15464;50.988;10.318;2023-01-26T04:09:28;99499.28;;;-2.49;100.00
28181;BME280;15464;50.988;10.318;2023-01-26T04:11:55;99497.69;;;-2.54;100.00
28181;BME280;15464;50.988;10.318;2023-01-26T04:14:22;99502.13;;;-2.58;100.00
28181;BME280;15464;50.988;10.318;2023-01-26T04:17:15;99505.56;;;-2.57;100.00
28181;BME280;15464;50.988;10.318;2023-01-26T04:20:01;99499.38;;;-2.52;100.00
28181;BME280;15464;50.988;10.318;2023-01-26T04:22:46;99501.88;;;-2.49;100.00
28181;BME280;15464;50.988;10.318;2023-01-26T04:25:15;99498.47;;;-2.51;100.00
28181;BME280;15464;50.988;10.318;2023-01-26T04:27:42;99491.56;;;-2.52;100.00
28181;BME280;15464;50.988;10.318;2023-01-26T04:30:11;99483.66;;;-2.47;100.00
28181;BME280;15464;50.988;10.318;2023-01-26T04:32:38;99490.63;;;-2.49;100.00
28181;BME280;15464;50.988;10.318;2023-01-26T04:35:06;99481.91;;;-2.45;100.00
28181;BME280;15464;50.988;10.318;2023-01-26T04:37:33;99478.34;;;-2.42;100.00
28181;BME280;15464;50.988;10.318;2023-01-26T04:40:00;99479.25;;;-2.44;100.00
28181;BME280;15464;50.988;10.318;2023-01-26T04:42:27;99478.34;;;-2.42;100.00
28181;BME280;15464;50.988;10.318;2023-01-26T04:44:54;99478.47;;;-2.47;100.00
28181;BME280;15464;50.988;10.318;2023-01-26T04:47:21;99475.91;;;-2.49;100.00
28181;BME280;15464;50.988;10.318;2023-01-26T04:49:48;99480.59;;;-2.63;100.00
28181;BME280;15464;50.988;10.318;2023-01-26T04:52:15;99472.84;;;-2.64;100.00
28181;BME280;15464;50.988;10.318;2023-01-26T04:54:41;99479.69;;;-2.62;100.00
28181;BME280;15464;50.988;10.318;2023-01-26T04:57:11;99475.25;;;-2.57;100.00
28181;BME280;15464;50.988;10.318;2023-01-26T04:59:38;99482.22;;;-2.59;100.00
28181;BME280;15464;50.988;10.318;2023-01-26T05:02:04;99472.56;;;-2.54;100.00
28181;BME280;15464;50.988;10.318;2023-01-26T05:04:31;99473.44;;;-2.53;100.00
28181;BME280;15464;50.988;10.318;2023-01-26T05:06:58;99476.38;;;-2.68;100.00
28181;BME280;15464;50.988;10.318;2023-01-26T05:09:24;99473.03;;;-2.72;100.00
28181;BME280;15464;50.988;10.318;2023-01-26T05:11:51;99474.63;;;-2.68;100.00
28181;BME280;15464;50.988;10.318;2023-01-26T05:14:18;99471.59;;;-2.85;100.00
28181;BME280;15464;50.988;10.318;2023-01-26T05:16:44;99472.25;;;-2.75;100.00
28181;BME280;15464;50.988;10.318;2023-01-26T05:19:11;99481.84;;;-2.79;100.00
28181;BME280;15464;50.988;10.318;2023-01-26T05:21:38;99479.19;;;-2.76;100.00
28181;BME280;15464;50.988;10.318;2023-01-26T05:24:05;99477.44;;;-2.75;100.00
28181;BME280;15464;50.988;10.318;2023-01-26T05:26:32;99486.19;;;-2.81;100.00
28181;BME280;15464;50.988;10.318;2023-01-26T05:28:58;99486.13;;;-2.78;100.00
28181;BME280;15464;50.988;10.318;2023-01-26T05:31:25;99480.78;;;-2.70;100.00
28181;BME280;15464;50.988;10.318;2023-01-26T05:33:52;99475.56;;;-2.69;100.00
28181;BME280;15464;50.988;10.318;2023-01-26T05:36:18;99479.97;;;-2.74;100.00
28181;BME280;15464;50.988;10.318;2023-01-26T05:38:45;99489.63;;;-2.79;100.00
28181;BME280;15464;50.988;10.318;2023-01-26T05:41:12;99487.97;;;-2.81;100.00
28181;BME280;15464;50.988;10.318;2023-01-26T05:43:39;99491.31;;;-2.76;100.00
28181;BME280;15464;50.988;10.318;2023-01-26T05:46:06;99487.97;;;-2.81;100.00
28181;BME280;15464;50.988;10.318;2023-01-26T05:48:33;99487.16;;;-2.85;100.00
28181;BME280;15464;50.988;10.318;2023-01-26T05:50:59;99491.50;;;-2.86;100.00
28181;BME280;15464;50.988;10.318;2023-01-26T05:53:29;99488.88;;;-2.84;100.00
28181;BME280;15464;50.988;10.318;2023-01-26T05:55:55;99494.06;;;-2.84;100.00
28181;BME280;15464;50.988;10.318;2023-01-26T05:58:22;99491.53;;;-2.87;100.00
28181;BME280;15464;50.988;10.318;2023-01-26T06:00:49;99501.88;;;-2.86;100.00
28181;BME280;15464;50.988;10.318;2023-01-26T06:03:15;99501.88;;;-2.86;100.00
28181;BME280;15464;50.988;10.318;2023-01-26T06:05:42;99506.34;;;-2.92;100.00
28181;BME280;15464;50.988;10.318;2023-01-26T06:08:09;99510.53;;;-2.85;100.00
28181;BME280;15464;50.988;10.318;2023-01-26T06:10:36;99502.69;;;-2.82;100.00
28181;BME280;15464;50.988;10.318;2023-01-26T06:13:02;99504.31;;;-2.78;100.00
28181;BME280;15464;50.988;10.318;2023-01-26T06:15:29;99507.94;;;-2.85;100.00
28181;BME280;15464;50.988;10.318;2023-01-26T06:17:56;99497.53;;;-2.85;100.00
28181;BME280;15464;50.988;10.318;2023-01-26T06:20:22;99501.84;;;-2.84;100.00
28181;BME280;15464;50.988;10.318;2023-01-26T06:22:49;99494.06;;;-2.84;100.00
28181;BME280;15464;50.988;10.318;2023-01-26T06:25:16;99508.72;;;-2.81;99.98
28181;BME280;15464;50.988;10.318;2023-01-26T06:27:42;99498.22;;;-2.75;100.00
28181;BME280;15464;50.988;10.318;2023-01-26T06:30:09;99506.16;;;-2.83;99.62
28181;BME280;15464;50.988;10.318;2023-01-26T06:32:36;99504.38;;;-2.81;99.33
28181;BME280;15464;50.988;10.318;2023-01-26T06:35:03;99507.78;;;-2.79;99.73
28181;BME280;15464;50.988;10.318;2023-01-26T06:37:32;99499.13;;;-2.78;99.80
28181;BME280;15464;50.988;10.318;2023-01-26T06:39:59;99497.78;;;-2.94;100.00
28181;BME280;15464;50.988;10.318;2023-01-26T06:42:25;99500.88;;;-2.80;99.78
28181;BME280;15464;50.988;10.318;2023-01-26T06:44:52;99502.47;;;-2.74;99.41
28181;BME280;15464;50.988;10.318;2023-01-26T06:47:19;99502.47;;;-2.73;99.16
28181;BME280;15464;50.988;10.318;2023-01-26T06:49:45;99499.88;;;-2.74;99.45
28181;BME280;15464;50.988;10.318;2023-01-26T06:52:22;99499.13;;;-2.78;99.81
28181;BME280;15464;50.988;10.318;2023-01-26T06:54:51;99501.75;;;-2.81;99.88
28181;BME280;15464;50.988;10.318;2023-01-26T06:57:18;99497.53;;;-2.85;99.96
28181;BME280;15464;50.988;10.318;2023-01-26T06:59:45;99496.53;;;-2.78;99.67
28181;BME280;15464;50.988;10.318;2023-01-26T07:02:20;99500.03;;;-2.80;99.28
28181;BME280;15464;50.988;10.318;2023-01-26T07:04:48;99503.44;;;-2.78;98.63
28181;BME280;15464;50.988;10.318;2023-01-26T07:07:15;99498.25;;;-2.78;99.17
28181;BME280;15464;50.988;10.318;2023-01-26T07:09:42;99500.75;;;-2.74;98.79
28181;BME280;15464;50.988;10.318;2023-01-26T07:12:08;99498.97;;;-2.72;98.46
28181;BME280;15464;50.988;10.318;2023-01-26T07:14:35;99505.00;;;-2.70;98.28
28181;BME280;15464;50.988;10.318;2023-01-26T07:17:02;99515.28;;;-2.67;98.03
28181;BME280;15464;50.988;10.318;2023-01-26T07:19:29;99517.19;;;-2.73;98.52
28181;BME280;15464;50.988;10.318;2023-01-26T07:21:58;99521.72;;;-2.83;98.27
28181;BME280;15464;50.988;10.318;2023-01-26T07:24:25;99516.59;;;-2.86;98.60
28181;BME280;15464;50.988;10.318;2023-01-26T07:26:53;99513.94;;;-2.83;99.53
28181;BME280;15464;50.988;10.318;2023-01-26T07:29:19;99516.47;;;-2.80;98.95
28181;BME280;15464;50.988;10.318;2023-01-26T07:31:46;99517.19;;;-2.73;99.39
28181;BME280;15464;50.988;10.318;2023-01-26T07:34:13;99524.31;;;-2.83;98.82
28181;BME280;15464;50.988;10.318;2023-01-26T07:36:39;99518.91;;;-2.74;98.88
28181;BME280;15464;50.988;10.318;2023-01-26T07:39:06;99523.09;;;-2.67;99.29
28181;BME280;15464;50.988;10.318;2023-01-26T07:41:34;99522.97;;;-2.62;99.33
28181;BME280;15464;50.988;10.318;2023-01-26T07:44:01;99529.84;;;-2.60;99.27
28181;BME280;15464;50.988;10.318;2023-01-26T07:46:27;99527.53;;;-2.72;98.72
28181;BME280;15464;50.988;10.318;2023-01-26T07:48:54;99534.41;;;-2.69;99.29
28181;BME280;15464;50.988;10.318;2023-01-26T07:51:21;99532.72;;;-2.72;99.65
28181;BME280;15464;50.988;10.318;2023-01-26T07:53:48;99532.97;;;-2.82;100.00
28181;BME280;15464;50.988;10.318;2023-01-26T07:56:16;99530.25;;;-2.78;100.00
28181;BME280;15464;50.988;10.318;2023-01-26T07:58:53;99525.84;;;-2.74;100.00
28181;BME280;15464;50.988;10.318;2023-01-26T08:01:20;99528.41;;;-2.73;100.00
28181;BME280;15464;50.988;10.318;2023-01-26T08:03:50;99527.63;;;-2.75;100.00
28181;BME280;15464;50.988;10.318;2023-01-26T08:06:17;99529.25;;;-2.71;100.00
28181;BME280;15464;50.988;10.318;2023-01-26T08:08:48;99538.59;;;-2.64;100.00
28181;BME280;15464;50.988;10.318;2023-01-26T08:11:19;99534.28;;;-2.63;99.85
28181;BME280;15464;50.988;10.318;2023-01-26T08:13:48;99536.91;;;-2.65;99.77
28181;BME280;15464;50.988;10.318;2023-01-26T08:16:14;99542.09;;;-2.65;99.87
28181;BME280;15464;50.988;10.318;2023-01-26T08:18:43;99539.63;;;-2.71;100.00
28181;BME280;15464;50.988;10.318;2023-01-26T08:21:13;99540.53;;;-2.73;100.00
28181;BME280;15464;50.988;10.318;2023-01-26T08:23:40;99540.53;;;-2.73;100.00
28181;BME280;15464;50.988;10.318;2023-01-26T08:26:11;99544.97;;;-2.77;100.00
28181;BME280;15464;50.988;10.318;2023-01-26T08:28:39;99538.78;;;-2.73;100.00
28181;BME280;15464;50.988;10.318;2023-01-26T08:31:09;99541.25;;;-2.67;100.00
28181;BME280;15464;50.988;10.318;2023-01-26T08:33:39;99533.56;;;-2.70;100.00
28181;BME280;15464;50.988;10.318;2023-01-26T08:36:10;99542.13;;;-2.68;100.00
28181;BME280;15464;50.988;10.318;2023-01-26T08:38:38;99536.06;;;-2.67;100.00
28181;BME280;15464;50.988;10.318;2023-01-26T08:41:05;99535.34;;;-2.73;100.00
28181;BME280;15464;50.988;10.318;2023-01-26T08:43:32;99545.72;;;-2.73;100.00
28181;BME280;15464;50.988;10.318;2023-01-26T08:46:00;99544.81;;;-2.71;100.00
28181;BME280;15464;50.988;10.318;2023-01-26T08:48:27;99540.34;;;-2.64;100.00
28181;BME280;15464;50.988;10.318;2023-01-26T08:51:16;99548.19;;;-2.67;99.99
28181;BME280;15464;50.988;10.318;2023-01-26T08:53:43;99545.50;;;-2.63;99.85
28181;BME280;15464;50.988;10.318;2023-01-26T08:56:11;99550.69;;;-2.63;99.58
28181;BME280;15464;50.988;10.318;2023-01-26T08:58:39;99543.84;;;-2.67;98.95
28181;BME280;15464;50.988;10.318;2023-01-26T09:01:14;99543.25;;;-2.78;98.36
28181;BME280;15464;50.988;10.318;2023-01-26T09:03:41;99553.63;;;-2.78;98.51
28181;BME280;15464;50.988;10.318;2023-01-26T09:06:11;99558.75;;;-2.75;98.28
28181;BME280;15464;50.988;10.318;2023-01-26T09:08:39;99562.19;;;-2.74;98.57
28181;BME280;15464;50.988;10.318;2023-01-26T09:11:07;99570.03;;;-2.76;98.05
28181;BME280;15464;50.988;10.318;2023-01-26T09:13:33;99568.22;;;-2.72;98.19
28181;BME280;15464;50.988;10.318;2023-01-26T09:16:03;99554.25;;;-2.68;98.04
28181;BME280;15464;50.988;10.318;2023-01-26T09:18:30;99558.75;;;-2.75;97.81
28181;BME280;15464;50.988;10.318;2023-01-26T09:21:05;99556.09;;;-2.72;97.02
28181;BME280;15464;50.988;10.318;2023-01-26T09:23:32;99554.19;;;-2.64;96.76
28181;BME280;15464;50.988;10.318;2023-01-26T09:26:00;99556.09;;;-2.72;96.28
28181;BME280;15464;50.988;10.318;2023-01-26T09:28:28;99559.66;;;-2.76;96.16
28181;BME280;15464;50.988;10.318;2023-01-26T09:30:55;99560.31;;;-2.68;96.00
28181;BME280;15464;50.988;10.318;2023-01-26T09:33:22;99560.44;;;-2.74;95.49
28181;BME280;15464;50.988;10.318;2023-01-26T09:35:48;99557.06;;;-2.76;95.97
28181;BME280;15464;50.988;10.318;2023-01-26T09:38:15;99556.22;;;-2.78;95.51
28181;BME280;15464;50.988;10.318;2023-01-26T09:41:05;99554.50;;;-2.79;95.27
28181;BME280;15464;50.988;10.318;2023-01-26T09:43:56;99559.84;;;-2.85;95.20
28181;BME280;15464;50.988;10.318;2023-01-26T09:46:45;99558.00;;;-2.80;95.53
28181;BME280;15464;50.988;10.318;2023-01-26T09:49:21;99544.97;;;-2.77;95.45
28181;BME280;15464;50.988;10.318;2023-01-26T09:54:31;99543.81;;;-2.64;95.54
28181;BME280;15464;50.988;10.318;2023-01-26T09:57:04;99547.19;;;-2.62;95.13
28181;BME280;15464;50.988;10.318;2023-01-26T09:59:46;99553.09;;;-2.55;95.14
28181;BME280;15464;50.988;10.318;2023-01-26T10:02:27;99548.75;;;-2.55;94.41
28181;BME280;15464;50.988;10.318;2023-01-26T10:05:03;99550.34;;;-2.48;94.17
28181;BME280;15464;50.988;10.318;2023-01-26T10:07:33;99548.72;;;-2.52;93.77
28181;BME280;15464;50.988;10.318;2023-01-26T10:12:49;99552.50;;;-2.66;92.41
28181;BME280;15464;50.988;10.318;2023-01-26T10:17:53;99545.38;;;-2.57;91.50
28181;BME280;15464;50.988;10.318;2023-01-26T10:20:27;99548.91;;;-2.61;91.79
28181;BME280;15464;50.988;10.318;2023-01-26T10:23:11;99547.00;;;-2.53;91.70
28181;BME280;15464;50.988;10.318;2023-01-26T10:25:43;99544.25;;;-2.47;91.67
28181;BME280;15464;50.988;10.318;2023-01-26T10:28:15;99532.97;;;-2.46;91.54
28181;BME280;15464;50.988;10.318;2023-01-26T10:30:44;99539.31;;;-2.57;90.92
28181;BME280;15464;50.988;10.318;2023-01-26T10:33:19;99531.63;;;-2.62;91.96
28181;BME280;15464;50.988;10.318;2023-01-26T10:35:46;99533.56;;;-2.70;91.59
28181;BME280;15464;50.988;10.318;2023-01-26T10:41:00;99534.75;;;-2.48;91.58
28181;BME280;15464;50.988;10.318;2023-01-26T10:43:52;99529.50;;;-2.45;91.84
28181;BME280;15464;50.988;10.318;2023-01-26T10:46:30;99530.28;;;-2.42;91.59
28181;BME280;15464;50.988;10.318;2023-01-26T10:49:00;99520.88;;;-2.47;90.15
28181;BME280;15464;50.988;10.318;2023-01-26T10:51:32;99523.50;;;-2.48;88.61
28181;BME280;15464;50.988;10.318;2023-01-26T10:54:14;99519.59;;;-2.66;87.20
28181;BME280;15464;50.988;10.318;2023-01-26T10:56:57;99523.44;;;-2.82;88.88
28181;BME280;15464;50.988;10.318;2023-01-26T10:59:29;99518.91;;;-2.74;89.67
28181;BME280;15464;50.988;10.318;2023-01-26T11:02:21;99511.81;;;-2.66;89.35
28181;BME280;15464;50.988;10.318;2023-01-26T11:05:14;99505.34;;;-2.87;88.51
28181;BME280;15464;50.988;10.318;2023-01-26T11:07:44;99505.94;;;-2.74;89.10
28181;BME280;15464;50.988;10.318;2023-01-26T11:10:38;99503.16;;;-2.66;88.28
28181;BME280;15464;50.988;10.318;2023-01-26T11:13:25;99489.41;;;-2.70;88.03
28181;BME280;15464;50.988;10.318;2023-01-26T11:16:16;99498.13;;;-2.72;88.28
28181;BME280;15464;50.988;10.318;2023-01-26T11:18:59;99502.59;;;-2.79;88.95
28181;BME280;15464;50.988;10.318;2023-01-26T11:32:55;99487.47;;;-2.62;89.17
28181;BME280;15464;50.988;10.318;2023-01-26T11:40:49;99476.72;;;-2.47;89.48
28181;BME280;15464;50.988;10.318;2023-01-26T11:49:02;99456.69;;;-2.41;90.84
28181;BME280;15464;50.988;10.318;2023-01-26T11:51:50;99459.09;;;-2.34;91.21
28181;BME280;15464;50.988;10.318;2023-01-26T11:57:23;99447.78;;;-2.31;89.72
28181;BME280;15464;50.988;10.318;2023-01-26T12:02:31;99449.31;;;-2.24;89.17
28181;BME280;15464;50.988;10.318;2023-01-26T12:05:11;99449.25;;;-2.21;88.39
28181;BME280;15464;50.988;10.318;2023-01-26T12:07:46;99436.22;;;-2.20;88.55
28181;BME280;15464;50.988;10.318;2023-01-26T12:10:24;99435.38;;;-2.20;87.88
28181;BME280;15464;50.988;10.318;2023-01-26T12:12:59;99429.47;;;-2.27;88.94
28181;BME280;15464;50.988;10.318;2023-01-26T12:15:36;99425.94;;;-2.24;89.11
28181;BME280;15464;50.988;10.318;2023-01-26T12:20:38;99424.72;;;-2.11;88.13
28181;BME280;15464;50.988;10.318;2023-01-26T12:23:15;99411.84;;;-2.14;88.02
28181;BME280;15464;50.988;10.318;2023-01-26T12:25:48;99400.22;;;-2.01;87.19
28181;BME280;15464;50.988;10.318;2023-01-26T12:31:33;99406.94;;;-1.94;87.01
28181;BME280;15464;50.988;10.318;2023-01-26T12:34:02;99401.75;;;-1.94;87.79
28181;BME280;15464;50.988;10.318;2023-01-26T12:40:10;99399.88;;;-1.89;85.28
28181;BME280;15464;50.988;10.318;2023-01-26T12:45:26;99396.28;;;-1.85;87.23
28181;BME280;15464;50.988;10.318;2023-01-26T12:50:38;99396.09;;;-1.79;87.28
28181;BME280;15464;50.988;10.318;2023-01-26T12:55:57;99396.25;;;-1.83;87.54
28181;BME280;15464;50.988;10.318;2023-01-26T12:58:28;99391.97;;;-1.86;87.82
28181;BME280;15464;50.988;10.318;2023-01-26T13:03:27;99381.28;;;-1.75;88.85
28181;BME280;15464;50.988;10.318;2023-01-26T13:06:23;99380.44;;;-1.76;89.55
28181;BME280;15464;50.988;10.318;2023-01-26T13:08:58;99385.63;;;-1.76;88.99
28181;BME280;15464;50.988;10.318;2023-01-26T13:14:27;99382.56;;;-1.60;89.40
28181;BME280;15464;50.988;10.318;2023-01-26T13:16:55;99389.31;;;-1.53;89.50
28181;BME280;15464;50.988;10.318;2023-01-26T13:24:56;99383.22;;;-1.52;89.22
28181;BME280;15464;50.988;10.318;2023-01-26T13:32:52;99384.38;;;-1.33;89.16
28181;BME280;15464;50.988;10.318;2023-01-26T13:35:22;99387.75;;;-1.31;89.08
28181;BME280;15464;50.988;10.318;2023-01-26T13:38:15;99382.47;;;-1.28;89.56
28181;BME280;15464;50.988;10.318;2023-01-26T13:40:47;99385.09;;;-1.30;88.98
28181;BME280;15464;50.988;10.318;2023-01-26T13:51:03;99389.38;;;-1.27;89.28
28181;BME280;15464;50.988;10.318;2023-01-26T13:54:17;99383.28;;;-1.26;89.10
28181;BME280;15464;50.988;10.318;2023-01-26T13:56:34;99392.13;;;-1.32;89.13
28181;BME280;15464;50.988;10.318;2023-01-26T13:59:22;99389.81;;;-1.42;89.01
28181;BME280;15464;50.988;10.318;2023-01-26T14:01:52;99384.44;;;-1.36;89.79
28181;BME280;15464;50.988;10.318;2023-01-26T14:04:29;99386.97;;;-1.33;89.19
28181;BME280;15464;50.988;10.318;2023-01-26T14:07:13;99385.78;;;-1.51;88.22
28181;BME280;15464;50.988;10.318;2023-01-26T14:10:19;99391.16;;;-1.57;87.15
28181;BME280;15464;50.988;10.318;2023-01-26T14:12:50;99386.53;;;-1.47;88.13
28181;BME280;15464;50.988;10.318;2023-01-26T14:15:37;99392.56;;;-1.47;89.15
28181;BME280;15464;50.988;10.318;2023-01-26T14:18:04;99396.84;;;-1.44;88.83
28181;BME280;15464;50.988;10.318;2023-01-26T14:20:34;99394.31;;;-1.47;89.43
28181;BME280;15464;50.988;10.318;2023-01-26T14:25:56;99398.63;;;-1.46;90.27
28181;BME280;15464;50.988;10.318;2023-01-26T14:28:27;99403.84;;;-1.46;89.49
28181;BME280;15464;50.988;10.318;2023-01-26T14:31:08;99414.25;;;-1.46;89.63
28181;BME280;15464;50.988;10.318;2023-01-26T14:33:37;99414.66;;;-1.62;89.22
28181;BME280;15464;50.988;10.318;2023-01-26T14:36:04;99417.16;;;-1.57;89.25